Portada
METAR-TAF:

METAR-TAF

Aeropuertos :

Schleswig-Jagel, Alemania

latitud: 54-28N, longitud: 009-31E, altitud: 22 m

Observación

El informe se hizo hace 1 hora y 7 minutos, a las 02:20 UTC
Viento 6 kt del noreste
Temperatura 9°C
Humedad 81%
Presión 1027 hPa
Visibilidad: 6000 m

METAR: ETNS 010220Z AUTO 04006KT 6000 // ////// 09/06 Q1027 ///

Hora: 05:27 (03:27 UTC)


TAF: falta

Observaciones y pronósticos meteorológicos de más de 4000 aeropuertos (mensajes METAR y TAF).

Los puntos amarillos y rojos representan las estaciones disponibles.

Ponga el ratón en el punto deseado para ver el nombre de la estación.

Haga clic para ver las observaciones y los pronósticos meteorológicos.

Para cambiar el mapa : haga clic en los botones verdes con una cruz de color negro para hacer un zoom, en el botón verde con un guión para alejar o en las flechas verdes para mapas adyacentes.


METAR-TAF: